Mabou, Canada
Current Conditions -  °F | °C
As of 9:00 AM on Saturday 20 Dec 2014 (Local Time) from CYPD Reporting Station
Overcast Overcast  
Wind Chill: 25°   Ceiling: 3600
Heat Index: 32°   Visibility: 9mi
Dew Point: 28°   Wind: 8mph
Humidity: 87%   Direction: 360°N
Pressure: 30.12"   Gusts: NA
Location:  46.07°N, 61.37°W
Report Text: CYPD 201300Z AUTO 36007KT 330V050 9SM OVC036 M00/M02 A3012 RMK SLP204
Loading
Personal Weather Stations






























Interactive Weather Map New forecast layout! Learn more

10-Day Weather Forecast

Advertisements
Track Severe Weather on mobile